ハルビン の空港の天気 - METARとTAF

ハルビン太平国際空港 ( ZYHB / HRB ) - 中華人民共和国 黒竜江省ハルビン市
飛行場実況気象(Metar)
観測時間08/17 11:00 CST (08/17 03:00 UTC)
風向・風速東北東 3m/s
視程10km以上
天気現象
全天の4割程度の雲 雲底高度 910m
気温27℃
湿度62%
気圧1011hPa
METARZYHB 170300Z 07003MPS 030V140 9999 SCT030 27/19 Q1011 NOSIG
過去の天気等 Google飛行場航空写真 Wunderground天気予報

過去48時間のMETAR

飛行場予報(TAF)
発表時間: 8/17 03:02 CST (8/16 19:02 UTC)
予報対象時間: 17日8時 CST ~ 18日8時 CST
風向・風速東北東 4m/s
視程6,000m
少しの雲 雲底高度 910m
TAF ZYHB 161902Z 1700/1724 07004MPS 6000 FEW030 TX28/1706Z TN18/1721Z